sensor_id;sensor_type;location;lat;lon;timestamp;P1;durP1;ratioP1;P2;durP2;ratioP2
4206;SDS011;2117;47.972;7.830;2024-03-23T00:51:41;5.87;;;2.50;;
4206;SDS011;2117;47.972;7.830;2024-03-23T00:54:07;5.30;;;2.90;;
4206;SDS011;2117;47.972;7.830;2024-03-23T00:56:32;2.77;;;2.33;;
4206;SDS011;2117;47.972;7.830;2024-03-23T00:58:58;6.43;;;2.77;;
4206;SDS011;2117;47.972;7.830;2024-03-23T01:01:23;4.67;;;2.80;;
4206;SDS011;2117;47.972;7.830;2024-03-23T01:03:49;3.10;;;2.20;;
4206;SDS011;2117;47.972;7.830;2024-03-23T01:06:14;4.63;;;2.83;;
4206;SDS011;2117;47.972;7.830;2024-03-23T01:08:40;4.73;;;2.50;;
4206;SDS011;2117;47.972;7.830;2024-03-23T01:11:05;4.00;;;2.20;;
4206;SDS011;2117;47.972;7.830;2024-03-23T01:13:31;4.60;;;2.50;;
4206;SDS011;2117;47.972;7.830;2024-03-23T01:15:56;5.00;;;3.03;;
4206;SDS011;2117;47.972;7.830;2024-03-23T01:18:22;4.27;;;2.60;;
4206;SDS011;2117;47.972;7.830;2024-03-23T01:20:48;7.50;;;3.10;;
4206;SDS011;2117;47.972;7.830;2024-03-23T01:23:14;3.90;;;2.70;;
4206;SDS011;2117;47.972;7.830;2024-03-23T01:25:40;4.00;;;2.90;;
4206;SDS011;2117;47.972;7.830;2024-03-23T01:28:06;4.57;;;2.90;;
4206;SDS011;2117;47.972;7.830;2024-03-23T01:30:32;5.77;;;2.17;;
4206;SDS011;2117;47.972;7.830;2024-03-23T01:32:58;4.63;;;2.93;;
4206;SDS011;2117;47.972;7.830;2024-03-23T01:35:24;3.30;;;2.20;;
4206;SDS011;2117;47.972;7.830;2024-03-23T01:37:49;5.60;;;2.80;;
4206;SDS011;2117;47.972;7.830;2024-03-23T01:40:17;2.90;;;2.00;;
4206;SDS011;2117;47.972;7.830;2024-03-23T01:42:43;6.90;;;2.33;;
4206;SDS011;2117;47.972;7.830;2024-03-23T01:45:20;4.60;;;3.30;;
4206;SDS011;2117;47.972;7.830;2024-03-23T01:47:45;6.83;;;3.20;;
4206;SDS011;2117;47.972;7.830;2024-03-23T01:50:11;4.07;;;2.50;;
4206;SDS011;2117;47.972;7.830;2024-03-23T01:52:36;3.50;;;2.27;;
4206;SDS011;2117;47.972;7.830;2024-03-23T01:55:02;6.40;;;2.60;;
4206;SDS011;2117;47.972;7.830;2024-03-23T01:57:28;5.43;;;3.07;;
4206;SDS011;2117;47.972;7.830;2024-03-23T01:59:54;4.30;;;2.63;;
4206;SDS011;2117;47.972;7.830;2024-03-23T02:02:20;4.20;;;3.03;;
4206;SDS011;2117;47.972;7.830;2024-03-23T02:04:45;12.17;;;3.20;;
4206;SDS011;2117;47.972;7.830;2024-03-23T02:07:11;7.13;;;2.80;;
4206;SDS011;2117;47.972;7.830;2024-03-23T02:09:36;5.33;;;2.70;;
4206;SDS011;2117;47.972;7.830;2024-03-23T02:12:02;3.60;;;2.60;;
4206;SDS011;2117;47.972;7.830;2024-03-23T02:14:28;6.73;;;3.10;;
4206;SDS011;2117;47.972;7.830;2024-03-23T02:16:54;5.67;;;3.03;;
4206;SDS011;2117;47.972;7.830;2024-03-23T02:19:19;4.17;;;2.10;;
4206;SDS011;2117;47.972;7.830;2024-03-23T02:21:45;3.97;;;2.83;;
4206;SDS011;2117;47.972;7.830;2024-03-23T02:24:12;5.80;;;2.67;;
4206;SDS011;2117;47.972;7.830;2024-03-23T02:26:37;4.57;;;2.97;;
4206;SDS011;2117;47.972;7.830;2024-03-23T02:29:03;4.63;;;2.73;;
4206;SDS011;2117;47.972;7.830;2024-03-23T02:31:28;7.60;;;3.23;;
4206;SDS011;2117;47.972;7.830;2024-03-23T02:33:54;5.50;;;2.87;;
4206;SDS011;2117;47.972;7.830;2024-03-23T02:36:19;5.70;;;2.53;;
4206;SDS011;2117;47.972;7.830;2024-03-23T02:38:46;5.07;;;2.77;;
4206;SDS011;2117;47.972;7.830;2024-03-23T02:41:12;5.43;;;3.03;;
4206;SDS011;2117;47.972;7.830;2024-03-23T02:43:38;4.20;;;3.17;;
4206;SDS011;2117;47.972;7.830;2024-03-23T02:46:04;4.00;;;3.07;;
4206;SDS011;2117;47.972;7.830;2024-03-23T02:48:29;3.80;;;2.77;;
4206;SDS011;2117;47.972;7.830;2024-03-23T02:50:55;4.23;;;2.13;;
4206;SDS011;2117;47.972;7.830;2024-03-23T02:53:20;4.37;;;3.10;;
4206;SDS011;2117;47.972;7.830;2024-03-23T02:55:46;6.73;;;3.60;;
4206;SDS011;2117;47.972;7.830;2024-03-23T02:58:12;5.43;;;3.00;;
4206;SDS011;2117;47.972;7.830;2024-03-23T03:00:37;8.80;;;2.50;;
4206;SDS011;2117;47.972;7.830;2024-03-23T03:03:03;5.77;;;3.20;;
4206;SDS011;2117;47.972;7.830;2024-03-23T03:05:28;5.47;;;2.80;;
4206;SDS011;2117;47.972;7.830;2024-03-23T03:07:54;9.10;;;2.77;;
4206;SDS011;2117;47.972;7.830;2024-03-23T03:10:19;6.00;;;3.10;;
4206;SDS011;2117;47.972;7.830;2024-03-23T03:12:45;5.87;;;3.53;;
4206;SDS011;2117;47.972;7.830;2024-03-23T03:15:11;7.17;;;2.90;;
4206;SDS011;2117;47.972;7.830;2024-03-23T03:17:38;5.77;;;3.30;;
4206;SDS011;2117;47.972;7.830;2024-03-23T03:20:03;5.57;;;3.40;;
4206;SDS011;2117;47.972;7.830;2024-03-23T03:22:30;5.50;;;3.33;;
4206;SDS011;2117;47.972;7.830;2024-03-23T03:24:55;5.17;;;3.57;;
4206;SDS011;2117;47.972;7.830;2024-03-23T03:27:21;5.77;;;3.20;;
4206;SDS011;2117;47.972;7.830;2024-03-23T03:29:47;7.00;;;3.03;;
4206;SDS011;2117;47.972;7.830;2024-03-23T03:32:13;5.60;;;3.47;;
4206;SDS011;2117;47.972;7.830;2024-03-23T03:34:38;7.33;;;3.40;;
4206;SDS011;2117;47.972;7.830;2024-03-23T03:37:04;5.30;;;2.50;;
4206;SDS011;2117;47.972;7.830;2024-03-23T03:39:29;3.90;;;3.00;;
4206;SDS011;2117;47.972;7.830;2024-03-23T03:41:55;7.93;;;3.43;;
4206;SDS011;2117;47.972;7.830;2024-03-23T03:44:20;7.30;;;3.70;;
4206;SDS011;2117;47.972;7.830;2024-03-23T03:46:46;4.70;;;3.20;;
4206;SDS011;2117;47.972;7.830;2024-03-23T03:49:12;3.83;;;3.00;;
4206;SDS011;2117;47.972;7.830;2024-03-23T03:51:37;3.90;;;3.20;;
4206;SDS011;2117;47.972;7.830;2024-03-23T03:54:03;4.60;;;3.20;;
4206;SDS011;2117;47.972;7.830;2024-03-23T03:56:28;5.27;;;2.77;;
4206;SDS011;2117;47.972;7.830;2024-03-23T03:58:54;6.10;;;3.00;;
4206;SDS011;2117;47.972;7.830;2024-03-23T04:01:19;9.40;;;3.40;;
4206;SDS011;2117;47.972;7.830;2024-03-23T04:03:45;12.03;;;3.20;;
4206;SDS011;2117;47.972;7.830;2024-03-23T04:06:11;5.80;;;3.67;;
4206;SDS011;2117;47.972;7.830;2024-03-23T04:08:37;4.83;;;3.50;;
4206;SDS011;2117;47.972;7.830;2024-03-23T04:11:02;5.67;;;3.27;;
4206;SDS011;2117;47.972;7.830;2024-03-23T04:13:28;6.33;;;4.13;;
4206;SDS011;2117;47.972;7.830;2024-03-23T04:15:54;7.27;;;3.60;;
4206;SDS011;2117;47.972;7.830;2024-03-23T04:18:20;4.40;;;2.80;;
4206;SDS011;2117;47.972;7.830;2024-03-23T04:20:46;3.33;;;2.63;;
4206;SDS011;2117;47.972;7.830;2024-03-23T04:23:12;4.97;;;3.57;;
4206;SDS011;2117;47.972;7.830;2024-03-23T04:25:38;6.80;;;4.13;;
4206;SDS011;2117;47.972;7.830;2024-03-23T04:28:03;12.10;;;4.30;;
4206;SDS011;2117;47.972;7.830;2024-03-23T04:30:29;7.67;;;3.93;;
4206;SDS011;2117;47.972;7.830;2024-03-23T04:32:56;7.87;;;4.33;;
4206;SDS011;2117;47.972;7.830;2024-03-23T04:35:23;6.23;;;3.40;;
4206;SDS011;2117;47.972;7.830;2024-03-23T04:37:50;6.57;;;3.97;;
4206;SDS011;2117;47.972;7.830;2024-03-23T04:40:17;7.17;;;4.67;;
4206;SDS011;2117;47.972;7.830;2024-03-23T04:42:43;6.63;;;3.87;;
4206;SDS011;2117;47.972;7.830;2024-03-23T04:45:09;8.27;;;5.17;;
4206;SDS011;2117;47.972;7.830;2024-03-23T04:47:35;4.40;;;3.63;;
4206;SDS011;2117;47.972;7.830;2024-03-23T04:50:02;7.50;;;4.00;;
4206;SDS011;2117;47.972;7.830;2024-03-23T04:52:29;6.87;;;4.60;;
4206;SDS011;2117;47.972;7.830;2024-03-23T04:54:54;5.93;;;4.70;;
4206;SDS011;2117;47.972;7.830;2024-03-23T04:57:20;7.13;;;4.40;;
4206;SDS011;2117;47.972;7.830;2024-03-23T04:59:46;6.23;;;4.70;;
4206;SDS011;2117;47.972;7.830;2024-03-23T05:02:12;8.70;;;4.87;;
4206;SDS011;2117;47.972;7.830;2024-03-23T05:04:38;9.03;;;5.77;;
4206;SDS011;2117;47.972;7.830;2024-03-23T05:07:03;6.03;;;4.83;;
4206;SDS011;2117;47.972;7.830;2024-03-23T05:09:29;9.07;;;5.20;;
4206;SDS011;2117;47.972;7.830;2024-03-23T05:11:55;7.57;;;5.43;;
4206;SDS011;2117;47.972;7.830;2024-03-23T05:14:22;7.97;;;5.40;;
4206;SDS011;2117;47.972;7.830;2024-03-23T05:16:47;8.67;;;5.73;;
4206;SDS011;2117;47.972;7.830;2024-03-23T05:19:13;11.50;;;6.10;;
4206;SDS011;2117;47.972;7.830;2024-03-23T05:21:38;9.97;;;5.47;;
4206;SDS011;2117;47.972;7.830;2024-03-23T05:24:04;8.70;;;6.53;;
4206;SDS011;2117;47.972;7.830;2024-03-23T05:26:31;8.83;;;5.30;;
4206;SDS011;2117;47.972;7.830;2024-03-23T05:28:59;6.77;;;4.90;;
4206;SDS011;2117;47.972;7.830;2024-03-23T05:31:25;8.67;;;4.77;;
4206;SDS011;2117;47.972;7.830;2024-03-23T05:33:51;6.33;;;4.33;;
4206;SDS011;2117;47.972;7.830;2024-03-23T05:36:17;7.37;;;5.50;;
4206;SDS011;2117;47.972;7.830;2024-03-23T05:38:43;6.30;;;4.30;;
4206;SDS011;2117;47.972;7.830;2024-03-23T05:41:08;8.90;;;5.30;;
4206;SDS011;2117;47.972;7.830;2024-03-23T05:43:35;9.40;;;5.20;;
4206;SDS011;2117;47.972;7.830;2024-03-23T05:46:00;8.03;;;4.63;;
4206;SDS011;2117;47.972;7.830;2024-03-23T05:48:26;9.10;;;5.20;;
4206;SDS011;2117;47.972;7.830;2024-03-23T05:50:52;11.03;;;5.17;;
4206;SDS011;2117;47.972;7.830;2024-03-23T05:53:19;6.70;;;4.80;;
4206;SDS011;2117;47.972;7.830;2024-03-23T05:55:47;10.80;;;4.87;;
4206;SDS011;2117;47.972;7.830;2024-03-23T05:58:17;6.40;;;5.20;;
4206;SDS011;2117;47.972;7.830;2024-03-23T06:00:43;8.10;;;5.30;;
4206;SDS011;2117;47.972;7.830;2024-03-23T06:03:09;9.87;;;5.33;;
4206;SDS011;2117;47.972;7.830;2024-03-23T06:05:36;7.57;;;4.73;;
4206;SDS011;2117;47.972;7.830;2024-03-23T06:08:02;6.83;;;5.20;;
4206;SDS011;2117;47.972;7.830;2024-03-23T06:10:28;6.70;;;4.90;;
4206;SDS011;2117;47.972;7.830;2024-03-23T06:12:53;7.43;;;5.47;;
4206;SDS011;2117;47.972;7.830;2024-03-23T06:15:19;4.50;;;3.50;;
4206;SDS011;2117;47.972;7.830;2024-03-23T06:17:45;2.87;;;2.03;;
4206;SDS011;2117;47.972;7.830;2024-03-23T06:20:11;4.43;;;2.30;;
4206;SDS011;2117;47.972;7.830;2024-03-23T06:22:37;4.43;;;2.50;;
4206;SDS011;2117;47.972;7.830;2024-03-23T06:25:03;3.40;;;2.30;;
4206;SDS011;2117;47.972;7.830;2024-03-23T06:27:29;3.90;;;2.13;;
4206;SDS011;2117;47.972;7.830;2024-03-23T06:29:54;3.93;;;2.40;;
4206;SDS011;2117;47.972;7.830;2024-03-23T06:32:20;2.40;;;1.47;;
4206;SDS011;2117;47.972;7.830;2024-03-23T06:34:46;1.70;;;0.97;;
4206;SDS011;2117;47.972;7.830;2024-03-23T06:37:12;3.27;;;1.00;;
4206;SDS011;2117;47.972;7.830;2024-03-23T06:39:38;2.00;;;0.63;;
4206;SDS011;2117;47.972;7.830;2024-03-23T06:42:04;2.80;;;0.90;;
4206;SDS011;2117;47.972;7.830;2024-03-23T06:44:29;1.30;;;0.60;;
4206;SDS011;2117;47.972;7.830;2024-03-23T06:46:55;1.30;;;0.53;;
4206;SDS011;2117;47.972;7.830;2024-03-23T06:49:22;1.50;;;0.60;;
4206;SDS011;2117;47.972;7.830;2024-03-23T06:51:48;1.70;;;0.60;;
4206;SDS011;2117;47.972;7.830;2024-03-23T06:54:13;1.60;;;0.60;;
4206;SDS011;2117;47.972;7.830;2024-03-23T06:56:39;1.37;;;0.70;;
4206;SDS011;2117;47.972;7.830;2024-03-23T06:59:05;2.00;;;0.80;;
4206;SDS011;2117;47.972;7.830;2024-03-23T07:01:31;1.27;;;0.70;;
4206;SDS011;2117;47.972;7.830;2024-03-23T07:03:56;1.67;;;0.80;;
4206;SDS011;2117;47.972;7.830;2024-03-23T07:06:22;1.30;;;0.63;;
4206;SDS011;2117;47.972;7.830;2024-03-23T07:08:47;1.83;;;0.70;;
4206;SDS011;2117;47.972;7.830;2024-03-23T07:11:20;1.20;;;0.50;;
4206;SDS011;2117;47.972;7.830;2024-03-23T07:13:46;1.67;;;0.70;;
4206;SDS011;2117;47.972;7.830;2024-03-23T07:16:12;1.10;;;0.50;;
4206;SDS011;2117;47.972;7.830;2024-03-23T07:18:38;1.70;;;0.50;;
4206;SDS011;2117;47.972;7.830;2024-03-23T07:21:04;2.13;;;0.60;;
4206;SDS011;2117;47.972;7.830;2024-03-23T07:23:31;1.10;;;0.60;;
4206;SDS011;2117;47.972;7.830;2024-03-23T07:26:01;1.20;;;0.50;;
4206;SDS011;2117;47.972;7.830;2024-03-23T07:28:28;1.33;;;0.60;;
4206;SDS011;2117;47.972;7.830;2024-03-23T07:31:13;1.60;;;0.60;;
4206;SDS011;2117;47.972;7.830;2024-03-23T07:33:43;1.43;;;0.70;;
4206;SDS011;2117;47.972;7.830;2024-03-23T07:36:12;5.37;;;0.77;;
4206;SDS011;2117;47.972;7.830;2024-03-23T07:38:42;1.70;;;0.67;;
4206;SDS011;2117;47.972;7.830;2024-03-23T07:41:10;1.10;;;0.60;;
4206;SDS011;2117;47.972;7.830;2024-03-23T07:43:37;2.03;;;0.67;;
4206;SDS011;2117;47.972;7.830;2024-03-23T07:46:04;1.90;;;0.70;;
4206;SDS011;2117;47.972;7.830;2024-03-23T07:48:30;1.10;;;0.60;;
4206;SDS011;2117;47.972;7.830;2024-03-23T07:53:25;1.60;;;0.70;;
4206;SDS011;2117;47.972;7.830;2024-03-23T07:55:57;2.00;;;0.57;;
4206;SDS011;2117;47.972;7.830;2024-03-23T07:58:24;3.00;;;0.73;;
4206;SDS011;2117;47.972;7.830;2024-03-23T08:00:51;2.30;;;0.70;;
4206;SDS011;2117;47.972;7.830;2024-03-23T08:03:17;2.80;;;0.70;;
4206;SDS011;2117;47.972;7.830;2024-03-23T08:05:42;1.40;;;0.60;;
4206;SDS011;2117;47.972;7.830;2024-03-23T08:08:08;1.70;;;0.70;;
4206;SDS011;2117;47.972;7.830;2024-03-23T08:10:33;2.40;;;0.83;;
4206;SDS011;2117;47.972;7.830;2024-03-23T08:12:59;1.37;;;0.70;;
4206;SDS011;2117;47.972;7.830;2024-03-23T08:15:25;2.30;;;1.00;;
4206;SDS011;2117;47.972;7.830;2024-03-23T08:17:51;3.03;;;1.17;;
4206;SDS011;2117;47.972;7.830;2024-03-23T08:20:16;1.67;;;0.77;;
4206;SDS011;2117;47.972;7.830;2024-03-23T08:22:42;3.73;;;1.13;;
4206;SDS011;2117;47.972;7.830;2024-03-23T08:25:07;4.37;;;1.07;;
4206;SDS011;2117;47.972;7.830;2024-03-23T08:27:33;3.87;;;1.10;;
4206;SDS011;2117;47.972;7.830;2024-03-23T08:29:58;2.97;;;1.20;;
4206;SDS011;2117;47.972;7.830;2024-03-23T08:32:24;7.10;;;1.33;;
4206;SDS011;2117;47.972;7.830;2024-03-23T08:34:50;2.70;;;1.20;;
4206;SDS011;2117;47.972;7.830;2024-03-23T08:37:15;2.93;;;1.30;;
4206;SDS011;2117;47.972;7.830;2024-03-23T08:39:42;5.13;;;1.70;;
4206;SDS011;2117;47.972;7.830;2024-03-23T08:42:08;4.63;;;1.50;;
4206;SDS011;2117;47.972;7.830;2024-03-23T08:44:34;3.60;;;1.60;;
4206;SDS011;2117;47.972;7.830;2024-03-23T08:47:00;6.93;;;1.93;;
4206;SDS011;2117;47.972;7.830;2024-03-23T08:49:26;5.70;;;2.80;;
4206;SDS011;2117;47.972;7.830;2024-03-23T08:51:52;8.20;;;2.77;;
4206;SDS011;2117;47.972;7.830;2024-03-23T08:54:19;8.47;;;2.40;;
4206;SDS011;2117;47.972;7.830;2024-03-23T08:56:45;7.87;;;2.40;;
4206;SDS011;2117;47.972;7.830;2024-03-23T08:59:11;7.13;;;2.70;;
4206;SDS011;2117;47.972;7.830;2024-03-23T09:01:36;9.43;;;2.93;;
4206;SDS011;2117;47.972;7.830;2024-03-23T09:04:03;6.07;;;2.47;;
4206;SDS011;2117;47.972;7.830;2024-03-23T09:06:29;9.77;;;2.60;;
4206;SDS011;2117;47.972;7.830;2024-03-23T09:08:54;7.20;;;2.33;;
4206;SDS011;2117;47.972;7.830;2024-03-23T09:11:20;7.20;;;2.60;;
4206;SDS011;2117;47.972;7.830;2024-03-23T09:13:45;7.07;;;2.57;;
4206;SDS011;2117;47.972;7.830;2024-03-23T09:16:11;10.93;;;2.57;;
4206;SDS011;2117;47.972;7.830;2024-03-23T09:18:37;7.43;;;2.50;;
4206;SDS011;2117;47.972;7.830;2024-03-23T09:21:03;8.67;;;3.13;;
4206;SDS011;2117;47.972;7.830;2024-03-23T09:23:31;7.03;;;2.40;;
4206;SDS011;2117;47.972;7.830;2024-03-23T09:25:56;8.90;;;2.80;;
4206;SDS011;2117;47.972;7.830;2024-03-23T09:28:22;6.43;;;2.80;;
4206;SDS011;2117;47.972;7.830;2024-03-23T09:30:47;5.73;;;2.00;;
4206;SDS011;2117;47.972;7.830;2024-03-23T09:33:13;7.13;;;1.83;;
4206;SDS011;2117;47.972;7.830;2024-03-23T09:35:39;8.40;;;2.27;;
4206;SDS011;2117;47.972;7.830;2024-03-23T09:38:09;8.60;;;2.93;;
4206;SDS011;2117;47.972;7.830;2024-03-23T09:40:39;6.10;;;2.20;;
4206;SDS011;2117;47.972;7.830;2024-03-23T09:43:07;6.43;;;2.00;;
4206;SDS011;2117;47.972;7.830;2024-03-23T09:45:34;6.63;;;2.10;;
4206;SDS011;2117;47.972;7.830;2024-03-23T09:48:03;7.60;;;1.70;;
4206;SDS011;2117;47.972;7.830;2024-03-23T09:50:29;4.27;;;1.60;;
4206;SDS011;2117;47.972;7.830;2024-03-23T09:52:55;7.80;;;2.10;;
4206;SDS011;2117;47.972;7.830;2024-03-23T09:55:20;6.70;;;2.60;;
4206;SDS011;2117;47.972;7.830;2024-03-23T09:57:46;7.77;;;2.27;;
4206;SDS011;2117;47.972;7.830;2024-03-23T10:00:11;11.13;;;2.00;;
4206;SDS011;2117;47.972;7.830;2024-03-23T10:02:38;2.67;;;1.37;;
4206;SDS011;2117;47.972;7.830;2024-03-23T10:05:03;5.63;;;2.37;;
4206;SDS011;2117;47.972;7.830;2024-03-23T10:07:29;7.60;;;2.30;;
4206;SDS011;2117;47.972;7.830;2024-03-23T10:09:55;3.80;;;1.70;;
4206;SDS011;2117;47.972;7.830;2024-03-23T10:12:23;5.57;;;1.90;;
4206;SDS011;2117;47.972;7.830;2024-03-23T10:14:49;4.93;;;1.97;;
4206;SDS011;2117;47.972;7.830;2024-03-23T10:17:16;5.10;;;1.60;;
4206;SDS011;2117;47.972;7.830;2024-03-23T10:19:43;11.37;;;2.20;;
4206;SDS011;2117;47.972;7.830;2024-03-23T10:22:22;4.30;;;2.00;;
4206;SDS011;2117;47.972;7.830;2024-03-23T10:24:49;6.40;;;2.20;;
4206;SDS011;2117;47.972;7.830;2024-03-23T10:27:16;6.73;;;2.20;;
4206;SDS011;2117;47.972;7.830;2024-03-23T10:29:48;8.60;;;1.87;;
4206;SDS011;2117;47.972;7.830;2024-03-23T10:32:14;7.37;;;2.03;;
4206;SDS011;2117;47.972;7.830;2024-03-23T10:34:43;6.30;;;1.53;;
4206;SDS011;2117;47.972;7.830;2024-03-23T10:37:10;6.60;;;1.93;;
4206;SDS011;2117;47.972;7.830;2024-03-23T10:39:37;11.60;;;1.77;;
4206;SDS011;2117;47.972;7.830;2024-03-23T10:42:10;3.03;;;1.50;;
4206;SDS011;2117;47.972;7.830;2024-03-23T10:44:36;6.10;;;1.77;;
4206;SDS011;2117;47.972;7.830;2024-03-23T10:47:03;3.77;;;1.40;;
4206;SDS011;2117;47.972;7.830;2024-03-23T10:49:33;2.70;;;1.27;;
4206;SDS011;2117;47.972;7.830;2024-03-23T10:52:01;2.70;;;1.50;;
4206;SDS011;2117;47.972;7.830;2024-03-23T10:54:28;4.70;;;1.20;;
4206;SDS011;2117;47.972;7.830;2024-03-23T10:59:42;2.73;;;1.43;;
4206;SDS011;2117;47.972;7.830;2024-03-23T11:02:18;2.73;;;1.40;;
4206;SDS011;2117;47.972;7.830;2024-03-23T11:04:44;7.23;;;2.00;;
4206;SDS011;2117;47.972;7.830;2024-03-23T11:07:31;5.63;;;2.20;;
4206;SDS011;2117;47.972;7.830;2024-03-23T11:09:58;3.10;;;1.50;;
4206;SDS011;2117;47.972;7.830;2024-03-23T11:15:01;5.30;;;2.13;;
4206;SDS011;2117;47.972;7.830;2024-03-23T11:17:27;2.97;;;1.50;;
4206;SDS011;2117;47.972;7.830;2024-03-23T11:20:00;4.37;;;1.57;;
4206;SDS011;2117;47.972;7.830;2024-03-23T11:22:39;6.97;;;2.50;;
4206;SDS011;2117;47.972;7.830;2024-03-23T11:27:45;5.63;;;2.00;;
4206;SDS011;2117;47.972;7.830;2024-03-23T11:56:57;2.47;;;1.27;;
4206;SDS011;2117;47.972;7.830;2024-03-23T11:59:31;3.47;;;1.70;;
4206;SDS011;2117;47.972;7.830;2024-03-23T12:02:05;3.07;;;1.50;;
4206;SDS011;2117;47.972;7.830;2024-03-23T12:04:36;4.10;;;1.50;;
4206;SDS011;2117;47.972;7.830;2024-03-23T12:07:17;2.53;;;1.30;;
4206;SDS011;2117;47.972;7.830;2024-03-23T12:09:45;6.57;;;1.20;;
4206;SDS011;2117;47.972;7.830;2024-03-23T12:12:15;2.97;;;1.30;;
4206;SDS011;2117;47.972;7.830;2024-03-23T12:14:45;6.10;;;2.50;;
4206;SDS011;2117;47.972;7.830;2024-03-23T12:17:25;4.53;;;1.50;;
4206;SDS011;2117;47.972;7.830;2024-03-23T12:19:51;15.93;;;2.40;;
4206;SDS011;2117;47.972;7.830;2024-03-23T12:22:20;9.00;;;2.43;;
4206;SDS011;2117;47.972;7.830;2024-03-23T12:24:46;10.57;;;2.50;;
4206;SDS011;2117;47.972;7.830;2024-03-23T12:27:12;6.33;;;1.67;;
4206;SDS011;2117;47.972;7.830;2024-03-23T12:29:38;19.63;;;2.90;;
4206;SDS011;2117;47.972;7.830;2024-03-23T12:32:04;22.93;;;3.73;;
4206;SDS011;2117;47.972;7.830;2024-03-23T12:34:30;20.77;;;3.30;;
4206;SDS011;2117;47.972;7.830;2024-03-23T12:36:56;10.00;;;2.40;;
4206;SDS011;2117;47.972;7.830;2024-03-23T12:39:21;4.80;;;2.07;;
4206;SDS011;2117;47.972;7.830;2024-03-23T12:41:47;7.87;;;1.70;;
4206;SDS011;2117;47.972;7.830;2024-03-23T12:44:13;5.73;;;2.07;;
4206;SDS011;2117;47.972;7.830;2024-03-23T12:46:40;10.73;;;3.20;;
4206;SDS011;2117;47.972;7.830;2024-03-23T12:49:06;17.97;;;3.30;;
4206;SDS011;2117;47.972;7.830;2024-03-23T12:51:32;7.90;;;2.40;;
4206;SDS011;2117;47.972;7.830;2024-03-23T12:53:58;19.23;;;2.63;;
4206;SDS011;2117;47.972;7.830;2024-03-23T12:56:23;8.50;;;2.10;;
4206;SDS011;2117;47.972;7.830;2024-03-23T12:58:49;5.93;;;1.80;;
4206;SDS011;2117;47.972;7.830;2024-03-23T13:01:19;8.23;;;2.77;;
4206;SDS011;2117;47.972;7.830;2024-03-23T13:03:47;7.90;;;2.90;;
4206;SDS011;2117;47.972;7.830;2024-03-23T13:06:14;5.00;;;2.00;;
4206;SDS011;2117;47.972;7.830;2024-03-23T13:08:40;8.20;;;2.37;;
4206;SDS011;2117;47.972;7.830;2024-03-23T13:11:06;8.17;;;2.70;;
4206;SDS011;2117;47.972;7.830;2024-03-23T13:13:33;6.13;;;2.10;;
4206;SDS011;2117;47.972;7.830;2024-03-23T13:16:03;8.97;;;2.17;;
4206;SDS011;2117;47.972;7.830;2024-03-23T13:18:29;15.77;;;2.90;;
4206;SDS011;2117;47.972;7.830;2024-03-23T13:20:55;9.10;;;2.10;;
4206;SDS011;2117;47.972;7.830;2024-03-23T13:23:21;8.13;;;2.47;;
4206;SDS011;2117;47.972;7.830;2024-03-23T13:25:51;5.10;;;1.50;;
4206;SDS011;2117;47.972;7.830;2024-03-23T13:28:17;3.83;;;1.70;;
4206;SDS011;2117;47.972;7.830;2024-03-23T13:30:50;4.80;;;1.63;;
4206;SDS011;2117;47.972;7.830;2024-03-23T13:33:16;5.53;;;1.57;;
4206;SDS011;2117;47.972;7.830;2024-03-23T13:35:48;11.40;;;2.33;;
4206;SDS011;2117;47.972;7.830;2024-03-23T13:38:17;4.87;;;2.17;;
4206;SDS011;2117;47.972;7.830;2024-03-23T13:40:55;7.77;;;2.00;;
4206;SDS011;2117;47.972;7.830;2024-03-23T13:43:22;8.50;;;2.43;;
4206;SDS011;2117;47.972;7.830;2024-03-23T13:45:49;5.10;;;1.60;;
4206;SDS011;2117;47.972;7.830;2024-03-23T13:48:17;8.63;;;1.80;;
4206;SDS011;2117;47.972;7.830;2024-03-23T13:50:44;3.73;;;1.50;;
4206;SDS011;2117;47.972;7.830;2024-03-23T13:53:12;5.63;;;2.00;;
4206;SDS011;2117;47.972;7.830;2024-03-23T13:55:38;5.97;;;1.30;;
4206;SDS011;2117;47.972;7.830;2024-03-23T13:58:13;7.57;;;1.70;;
4206;SDS011;2117;47.972;7.830;2024-03-23T14:00:38;10.60;;;1.87;;
4206;SDS011;2117;47.972;7.830;2024-03-23T14:03:04;7.50;;;1.27;;
4206;SDS011;2117;47.972;7.830;2024-03-23T14:05:30;3.73;;;1.23;;
4206;SDS011;2117;47.972;7.830;2024-03-23T14:07:56;6.67;;;1.33;;
4206;SDS011;2117;47.972;7.830;2024-03-23T14:10:21;7.67;;;2.27;;
4206;SDS011;2117;47.972;7.830;2024-03-23T14:12:47;5.80;;;1.60;;
4206;SDS011;2117;47.972;7.830;2024-03-23T14:15:13;4.70;;;1.57;;
4206;SDS011;2117;47.972;7.830;2024-03-23T14:17:38;4.40;;;1.20;;
4206;SDS011;2117;47.972;7.830;2024-03-23T14:20:04;3.70;;;1.40;;
4206;SDS011;2117;47.972;7.830;2024-03-23T14:22:31;8.50;;;1.50;;
4206;SDS011;2117;47.972;7.830;2024-03-23T14:24:57;5.03;;;1.40;;
4206;SDS011;2117;47.972;7.830;2024-03-23T14:27:22;5.27;;;1.33;;
4206;SDS011;2117;47.972;7.830;2024-03-23T14:29:48;4.73;;;1.77;;
4206;SDS011;2117;47.972;7.830;2024-03-23T14:32:14;10.13;;;1.77;;
4206;SDS011;2117;47.972;7.830;2024-03-23T14:34:40;6.33;;;2.20;;
4206;SDS011;2117;47.972;7.830;2024-03-23T14:37:06;4.17;;;1.83;;
4206;SDS011;2117;47.972;7.830;2024-03-23T14:39:32;4.53;;;1.27;;
4206;SDS011;2117;47.972;7.830;2024-03-23T14:41:59;3.73;;;1.90;;
4206;SDS011;2117;47.972;7.830;2024-03-23T14:44:26;4.30;;;1.53;;
4206;SDS011;2117;47.972;7.830;2024-03-23T14:46:53;4.37;;;1.33;;
4206;SDS011;2117;47.972;7.830;2024-03-23T14:49:20;5.23;;;1.47;;
4206;SDS011;2117;47.972;7.830;2024-03-23T14:51:45;4.10;;;2.07;;
4206;SDS011;2117;47.972;7.830;2024-03-23T14:54:11;3.77;;;1.07;;
4206;SDS011;2117;47.972;7.830;2024-03-23T14:56:38;5.37;;;1.00;;
4206;SDS011;2117;47.972;7.830;2024-03-23T14:59:03;6.53;;;1.23;;
4206;SDS011;2117;47.972;7.830;2024-03-23T15:01:29;6.20;;;1.20;;
4206;SDS011;2117;47.972;7.830;2024-03-23T15:03:54;7.10;;;2.47;;
4206;SDS011;2117;47.972;7.830;2024-03-23T15:06:20;3.00;;;1.00;;
4206;SDS011;2117;47.972;7.830;2024-03-23T15:08:46;2.43;;;1.23;;
4206;SDS011;2117;47.972;7.830;2024-03-23T15:11:11;6.17;;;1.20;;
4206;SDS011;2117;47.972;7.830;2024-03-23T15:13:37;3.90;;;0.90;;
4206;SDS011;2117;47.972;7.830;2024-03-23T15:16:04;6.70;;;1.07;;
4206;SDS011;2117;47.972;7.830;2024-03-23T15:18:30;6.37;;;0.87;;
4206;SDS011;2117;47.972;7.830;2024-03-23T15:20:58;2.70;;;1.20;;
4206;SDS011;2117;47.972;7.830;2024-03-23T15:23:27;4.50;;;1.43;;
4206;SDS011;2117;47.972;7.830;2024-03-23T15:25:56;3.30;;;1.10;;
4206;SDS011;2117;47.972;7.830;2024-03-23T15:28:23;3.93;;;1.00;;
4206;SDS011;2117;47.972;7.830;2024-03-23T15:30:49;3.90;;;0.97;;
4206;SDS011;2117;47.972;7.830;2024-03-23T15:33:15;6.60;;;1.33;;
4206;SDS011;2117;47.972;7.830;2024-03-23T15:35:40;3.23;;;1.30;;
4206;SDS011;2117;47.972;7.830;2024-03-23T15:38:06;4.23;;;1.50;;
4206;SDS011;2117;47.972;7.830;2024-03-23T15:40:31;1.83;;;0.80;;
4206;SDS011;2117;47.972;7.830;2024-03-23T15:42:58;3.23;;;1.33;;
4206;SDS011;2117;47.972;7.830;2024-03-23T15:45:24;4.00;;;1.30;;
4206;SDS011;2117;47.972;7.830;2024-03-23T15:47:50;6.83;;;1.57;;
4206;SDS011;2117;47.972;7.830;2024-03-23T15:50:17;2.07;;;0.70;;
4206;SDS011;2117;47.972;7.830;2024-03-23T15:52:42;2.93;;;1.27;;
4206;SDS011;2117;47.972;7.830;2024-03-23T15:55:08;6.00;;;2.20;;
4206;SDS011;2117;47.972;7.830;2024-03-23T15:57:35;4.37;;;1.20;;
4206;SDS011;2117;47.972;7.830;2024-03-23T16:00:01;4.50;;;2.43;;
4206;SDS011;2117;47.972;7.830;2024-03-23T16:02:27;2.37;;;1.00;;
4206;SDS011;2117;47.972;7.830;2024-03-23T16:04:53;4.30;;;1.53;;
4206;SDS011;2117;47.972;7.830;2024-03-23T16:07:20;11.33;;;4.40;;
4206;SDS011;2117;47.972;7.830;2024-03-23T16:09:46;18.80;;;7.70;;
4206;SDS011;2117;47.972;7.830;2024-03-23T16:12:11;5.07;;;1.67;;
4206;SDS011;2117;47.972;7.830;2024-03-23T16:14:37;5.70;;;2.37;;
4206;SDS011;2117;47.972;7.830;2024-03-23T16:17:02;3.57;;;1.80;;
4206;SDS011;2117;47.972;7.830;2024-03-23T16:19:28;5.20;;;2.60;;
4206;SDS011;2117;47.972;7.830;2024-03-23T16:21:54;3.67;;;2.30;;
4206;SDS011;2117;47.972;7.830;2024-03-23T16:24:20;5.43;;;1.97;;
4206;SDS011;2117;47.972;7.830;2024-03-23T16:26:46;5.53;;;3.50;;
4206;SDS011;2117;47.972;7.830;2024-03-23T16:29:12;9.60;;;6.93;;
4206;SDS011;2117;47.972;7.830;2024-03-23T16:31:37;14.73;;;10.93;;
4206;SDS011;2117;47.972;7.830;2024-03-23T16:34:03;10.30;;;9.03;;
4206;SDS011;2117;47.972;7.830;2024-03-23T16:36:29;7.50;;;6.70;;
4206;SDS011;2117;47.972;7.830;2024-03-23T16:38:54;4.47;;;3.80;;